Time;durP1;ratioP1;P1;durP2;ratioP2;P2;SDS_P1;SDS_P2;PMS_P1;PMS_P2;Temp;Humidity;BMP_temperature;BMP_pressure;BME280_temperature;BME280_humidity;BME280_pressure;Samples;Min_cycle;Max_cycle;Signal;HPM_P1;HPM_P2
2021/03/10 00:01:18;;;;;;;22.83;12.68;;;0.40;54.70;;;;;;5018878;28;20026;-54
2021/03/10 00:03:44;;;;;;;21.77;12.30;;;0.40;54.60;;;;;;5021967;28;20022;-57
2021/03/10 00:06:10;;;;;;;19.90;11.23;;;0.40;54.50;;;;;;5028282;28;20113;-56
2021/03/10 00:08:35;;;;;;;23.25;13.25;;;0.40;54.50;;;;;;5034584;28;20029;-55
2021/03/10 00:11:01;;;;;;;22.15;14.25;;;0.40;54.40;;;;;;5034559;28;20029;-55
2021/03/10 00:13:27;;;;;;;20.63;13.15;;;0.40;54.60;;;;;;5033541;28;20025;-59
2021/03/10 00:15:53;;;;;;;23.25;13.68;;;0.30;54.70;;;;;;5025746;28;20440;-57
2021/03/10 00:18:19;;;;;;;15.93;10.25;;;0.30;54.90;;;;;;5031518;28;20100;-58
2021/03/10 00:20:44;;;;;;;18.35;11.52;;;0.30;54.70;;;;;;5031985;28;20024;-58
2021/03/10 00:23:10;;;;;;;17.40;10.45;;;0.20;54.70;;;;;;5027720;28;20021;-57
2021/03/10 00:25:35;;;;;;;16.02;9.68;;;0.20;54.90;;;;;;5034049;28;20416;-56
2021/03/10 00:28:01;;;;;;;17.95;10.52;;;0.20;55.00;;;;;;5034202;28;20543;-56
2021/03/10 00:30:27;;;;;;;17.27;11.25;;;0.20;55.10;;;;;;5027787;28;20029;-57
2021/03/10 00:32:53;;;;;;;14.63;10.52;;;0.20;55.20;;;;;;5032709;28;20022;-55
2021/03/10 00:35:18;;;;;;;14.77;9.52;;;0.20;55.20;;;;;;5033481;28;20021;-56
2021/03/10 00:37:44;;;;;;;16.27;10.25;;;0.20;55.40;;;;;;5032914;28;20025;-54
2021/03/10 00:40:10;;;;;;;15.77;10.23;;;0.20;55.40;;;;;;5034418;28;20485;-55
2021/03/10 00:42:35;;;;;;;16.02;10.32;;;0.20;55.50;;;;;;5028218;28;20053;-56
2021/03/10 00:45:01;;;;;;;18.58;9.45;;;0.20;55.60;;;;;;5031318;28;20047;-54
2021/03/10 00:47:27;;;;;;;11.32;7.47;;;0.20;55.70;;;;;;5026457;28;20032;-58
2021/03/10 00:49:52;;;;;;;12.65;8.27;;;0.20;55.70;;;;;;5027964;28;20068;-58
2021/03/10 00:52:18;;;;;;;9.60;6.95;;;0.20;55.70;;;;;;5033017;28;20040;-58
2021/03/10 00:54:44;;;;;;;9.27;6.70;;;0.20;55.80;;;;;;5031469;28;20036;-57
2021/03/10 00:57:09;;;;;;;10.68;6.80;;;0.20;55.70;;;;;;5033635;28;20033;-58
2021/03/10 00:59:35;;;;;;;10.00;6.28;;;0.20;55.60;;;;;;5033525;28;20021;-59
2021/03/10 01:02:01;;;;;;;8.68;6.60;;;0.20;55.50;;;;;;5026314;28;20101;-54
2021/03/10 01:04:27;;;;;;;10.07;7.10;;;0.20;55.50;;;;;;5033352;28;20364;-56
2021/03/10 01:06:53;;;;;;;9.60;6.43;;;0.20;55.60;;;;;;5026729;28;20077;-58
2021/03/10 01:09:19;;;;;;;9.52;7.00;;;0.10;55.70;;;;;;5032155;28;20025;-55
2021/03/10 01:11:45;;;;;;;11.88;7.53;;;0.10;55.80;;;;;;5027488;28;20109;-56
2021/03/10 01:14:11;;;;;;;10.60;7.13;;;0.10;55.90;;;;;;5028572;28;20523;-57
2021/03/10 01:16:37;;;;;;;9.75;7.43;;;0.10;56.00;;;;;;5026036;28;20026;-54
2021/03/10 01:19:04;;;;;;;12.82;6.65;;;0.10;56.20;;;;;;5033522;28;20113;-57
2021/03/10 01:21:30;;;;;;;11.43;6.85;;;0.00;56.30;;;;;;5032868;28;20104;-57
2021/03/10 01:23:56;;;;;;;10.05;6.95;;;0.00;56.40;;;;;;5031731;28;20105;-59
2021/03/10 01:26:21;;;;;;;10.20;6.95;;;0.00;56.60;;;;;;5023733;28;20441;-58
2021/03/10 01:28:48;;;;;;;11.52;7.63;;;0.00;56.60;;;;;;5033396;28;20053;-59
2021/03/10 01:31:13;;;;;;;9.27;7.50;;;0.00;56.70;;;;;;5031572;28;20385;-59
2021/03/10 01:33:39;;;;;;;10.60;7.20;;;0.00;56.80;;;;;;5031923;28;20252;-54
2021/03/10 01:36:06;;;;;;;11.80;7.05;;;0.00;56.70;;;;;;5032934;28;20032;-54
2021/03/10 01:38:32;;;;;;;10.20;7.35;;;0.00;56.80;;;;;;5032805;28;20025;-55
2021/03/10 01:40:57;;;;;;;12.82;7.95;;;0.00;56.90;;;;;;5033183;28;20075;-55
2021/03/10 01:43:23;;;;;;;12.20;8.35;;;0.00;56.80;;;;;;5028564;28;20045;-58
2021/03/10 01:45:48;;;;;;;9.55;7.50;;;0.00;57.20;;;;;;5024335;28;20051;-55
2021/03/10 01:48:19;;;;;;;10.88;8.85;;;0.00;57.30;;;;;;5027289;28;20014;-57
2021/03/10 01:50:45;;;;;;;12.82;8.25;;;0.00;57.10;;;;;;5026248;28;20104;-56
2021/03/10 01:53:10;;;;;;;13.80;9.93;;;-0.10;57.20;;;;;;5031439;28;20025;-56
2021/03/10 01:55:36;;;;;;;11.57;8.25;;;-0.10;57.20;;;;;;5025799;28;20074;-55
2021/03/10 01:58:02;;;;;;;11.25;7.78;;;-0.10;57.30;;;;;;5021008;28;20026;-58
2021/03/10 02:00:29;;;;;;;10.95;8.02;;;-0.10;57.40;;;;;;5025388;28;20026;-59
2021/03/10 02:02:55;;;;;;;11.05;7.65;;;-0.10;57.60;;;;;;5026063;28;20108;-59
2021/03/10 02:05:24;;;;;;;10.30;7.20;;;-0.10;57.80;;;;;;5031474;28;20036;-57
2021/03/10 02:07:58;;;;;;;10.25;7.22;;;-0.10;57.90;;;;;;5021230;28;20096;-57
2021/03/10 02:10:45;;;;;;;11.10;6.97;;;-0.10;57.90;;;;;;5032609;28;20382;-56
2021/03/10 02:13:37;;;;;;;11.20;7.70;;;-0.10;58.00;;;;;;5030125;28;20025;-57
2021/03/10 02:16:27;;;;;;;10.85;7.07;;;-0.10;58.20;;;;;;5027056;28;20112;-58
2021/03/10 02:19:02;;;;;;;11.32;8.30;;;-0.10;58.20;;;;;;5022498;28;20477;-57
2021/03/10 02:21:44;;;;;;;10.55;7.63;;;-0.20;58.10;;;;;;5031246;28;20116;-59
2021/03/10 02:24:31;;;;;;;12.50;7.97;;;-0.20;58.20;;;;;;5029889;28;20028;-58
2021/03/10 02:27:15;;;;;;;11.68;7.53;;;-0.20;58.40;;;;;;5033196;28;20033;-58
2021/03/10 02:29:42;;;;;;;13.68;8.68;;;-0.20;58.20;;;;;;5032077;28;20037;-56
2021/03/10 02:32:10;;;;;;;13.40;8.77;;;-0.30;58.40;;;;;;5019800;28;20038;-59
2021/03/10 02:34:37;;;;;;;11.73;8.48;;;-0.30;58.50;;;;;;5032902;28;20490;-54
2021/03/10 02:37:04;;;;;;;11.50;8.38;;;-0.30;58.60;;;;;;5025648;28;20063;-59
2021/03/10 02:39:31;;;;;;;11.43;8.40;;;-0.30;58.60;;;;;;5035988;28;20052;-58
2021/03/10 02:41:57;;;;;;;12.05;7.72;;;-0.30;58.60;;;;;;5034585;28;20036;-59
2021/03/10 02:44:24;;;;;;;13.07;8.63;;;-0.30;58.50;;;;;;5036141;28;20469;-57
2021/03/10 02:46:49;;;;;;;13.75;9.00;;;-0.30;58.50;;;;;;5032640;28;20109;-57
2021/03/10 02:49:17;;;;;;;10.30;8.00;;;-0.40;58.50;;;;;;5029625;28;20128;-55
2021/03/10 02:51:45;;;;;;;13.70;8.80;;;-0.40;58.60;;;;;;5035413;28;20053;-54
2021/03/10 02:54:13;;;;;;;11.07;8.23;;;-0.40;58.60;;;;;;5036283;28;20048;-58
2021/03/10 02:56:41;;;;;;;14.50;7.90;;;-0.40;58.70;;;;;;5032168;28;20029;-55
2021/03/10 02:59:07;;;;;;;11.82;8.18;;;-0.40;58.90;;;;;;5036067;28;20037;-54
2021/03/10 03:01:33;;;;;;;9.48;7.65;;;-0.50;59.00;;;;;;5031714;28;20535;-55
2021/03/10 03:03:58;;;;;;;9.55;7.15;;;-0.50;59.00;;;;;;5034228;28;20029;-56
2021/03/10 03:06:24;;;;;;;12.77;6.95;;;-0.50;59.00;;;;;;5036043;28;20070;-56
2021/03/10 03:08:50;;;;;;;10.80;7.10;;;-0.50;59.00;;;;;;5033271;28;20037;-55
2021/03/10 03:11:16;;;;;;;10.75;7.57;;;-0.50;59.00;;;;;;5029562;28;20041;-57
2021/03/10 03:13:42;;;;;;;10.90;7.47;;;-0.50;59.00;;;;;;5030643;28;20033;-58
2021/03/10 03:16:08;;;;;;;10.18;7.70;;;-0.50;59.10;;;;;;5032423;28;20159;-58
2021/03/10 03:18:35;;;;;;;12.35;7.90;;;-0.50;59.10;;;;;;5035699;28;20065;-59
2021/03/10 03:21:01;;;;;;;12.98;8.48;;;-0.50;59.20;;;;;;5035713;28;20620;-56
2021/03/10 03:23:27;;;;;;;12.60;7.80;;;-0.50;59.40;;;;;;5033825;28;20421;-58
2021/03/10 03:25:55;;;;;;;12.48;8.55;;;-0.50;59.50;;;;;;5034313;28;20025;-57
2021/03/10 03:28:23;;;;;;;11.10;7.50;;;-0.50;59.70;;;;;;5035390;28;20029;-57
2021/03/10 03:30:51;;;;;;;11.98;8.48;;;-0.50;59.60;;;;;;5027499;28;20064;-56
2021/03/10 03:33:20;;;;;;;10.88;8.13;;;-0.60;59.50;;;;;;5035239;28;20041;-56
2021/03/10 03:35:53;;;;;;;13.30;9.45;;;-0.60;59.40;;;;;;5034307;28;20101;-57
2021/03/10 03:38:21;;;;;;;14.73;9.23;;;-0.60;59.60;;;;;;5035088;28;20013;-55
2021/03/10 03:40:49;;;;;;;12.15;9.15;;;-0.60;59.70;;;;;;5032717;28;20013;-58
2021/03/10 03:43:15;;;;;;;15.30;10.75;;;-0.60;59.70;;;;;;5031892;28;20061;-56
2021/03/10 03:45:41;;;;;;;14.05;10.40;;;-0.60;59.80;;;;;;5033548;28;20057;-57
2021/03/10 03:48:07;;;;;;;14.23;10.38;;;-0.60;59.80;;;;;;5034966;28;20021;-56
2021/03/10 03:50:33;;;;;;;15.27;10.18;;;-0.60;59.90;;;;;;5033409;28;20512;-54
2021/03/10 03:52:59;;;;;;;14.20;9.40;;;-0.60;59.90;;;;;;5033245;28;20045;-54
2021/03/10 03:55:25;;;;;;;11.98;9.05;;;-0.60;59.90;;;;;;5017613;28;20049;-58
2021/03/10 03:57:51;;;;;;;12.95;9.18;;;-0.60;59.80;;;;;;5032864;28;20064;-58
2021/03/10 04:00:20;;;;;;;12.55;9.18;;;-0.60;59.80;;;;;;5027650;28;20022;-58
2021/03/10 04:02:47;;;;;;;14.95;9.82;;;-0.60;59.80;;;;;;5033191;28;20474;-58
2021/03/10 04:05:15;;;;;;;12.27;9.15;;;-0.60;59.80;;;;;;5034117;28;20421;-58
2021/03/10 04:07:54;;;;;;;12.88;9.38;;;-0.60;60.20;;;;;;5034543;28;20052;-55
2021/03/10 04:10:28;;;;;;;14.15;10.65;;;-0.60;60.60;;;;;;5033885;28;20025;-59
2021/03/10 04:12:54;;;;;;;17.20;10.35;;;-0.60;60.80;;;;;;5034656;28;20032;-55
2021/03/10 04:15:20;;;;;;;14.48;9.80;;;-0.60;60.90;;;;;;5031644;28;20104;-55
2021/03/10 04:17:46;;;;;;;16.08;10.98;;;-0.60;61.10;;;;;;5025492;28;20029;-54
2021/03/10 04:20:14;;;;;;;18.88;9.88;;;-0.60;61.30;;;;;;5029563;28;20040;-56
2021/03/10 04:22:40;;;;;;;18.60;11.90;;;-0.50;61.40;;;;;;5030790;28;20022;-57
2021/03/10 04:25:07;;;;;;;16.30;11.43;;;-0.50;61.40;;;;;;5029536;28;20358;-55
2021/03/10 04:27:33;;;;;;;14.77;10.52;;;-0.50;61.60;;;;;;5034230;28;20485;-54
2021/03/10 04:29:58;;;;;;;16.88;11.77;;;-0.50;61.70;;;;;;5024453;28;20033;-54
2021/03/10 04:32:24;;;;;;;17.90;10.95;;;-0.40;61.90;;;;;;5022732;28;20030;-54
2021/03/10 04:34:50;;;;;;;15.65;10.45;;;-0.40;62.00;;;;;;5030649;28;20034;-56
2021/03/10 04:37:15;;;;;;;18.33;13.40;;;-0.40;62.00;;;;;;5024738;28;20096;-58
2021/03/10 04:39:41;;;;;;;15.40;10.35;;;-0.40;61.90;;;;;;5034063;28;20030;-58
2021/03/10 04:42:07;;;;;;;14.40;9.18;;;-0.30;61.90;;;;;;5027692;28;20579;-57
2021/03/10 04:44:33;;;;;;;13.63;8.98;;;-0.30;61.80;;;;;;5031876;28;20029;-58
2021/03/10 04:46:58;;;;;;;13.43;9.50;;;-0.30;61.50;;;;;;5032354;28;20032;-57
2021/03/10 04:49:24;;;;;;;13.27;8.38;;;-0.20;61.50;;;;;;5033646;28;20045;-57
2021/03/10 04:51:49;;;;;;;11.38;8.35;;;-0.20;61.40;;;;;;5032812;28;20489;-57
2021/03/10 04:54:15;;;;;;;10.45;6.95;;;-0.10;61.30;;;;;;5033854;28;20389;-56
2021/03/10 04:56:41;;;;;;;9.60;6.38;;;-0.10;60.90;;;;;;5020507;28;20030;-58
2021/03/10 04:59:06;;;;;;;7.95;5.45;;;0.00;60.50;;;;;;5033456;28;20029;-55
2021/03/10 05:01:35;;;;;;;9.60;6.32;;;0.00;60.20;;;;;;5032921;28;20112;-58
2021/03/10 05:04:01;;;;;;;7.47;5.45;;;0.00;60.00;;;;;;5032054;28;20030;-54
2021/03/10 05:06:32;;;;;;;8.30;5.85;;;0.10;59.90;;;;;;5031866;28;20464;-58
2021/03/10 05:08:58;;;;;;;12.80;6.18;;;0.20;59.60;;;;;;5030726;28;20042;-56
2021/03/10 05:11:27;;;;;;;7.35;5.47;;;0.20;59.40;;;;;;5032320;28;20037;-58
2021/03/10 05:13:52;;;;;;;9.00;6.28;;;0.30;59.20;;;;;;5033477;28;20021;-59
2021/03/10 05:16:18;;;;;;;8.50;6.00;;;0.30;59.20;;;;;;5033565;28;20041;-59
2021/03/10 05:18:44;;;;;;;7.25;5.78;;;0.50;59.20;;;;;;5031213;28;20041;-58
2021/03/10 05:21:10;;;;;;;9.48;7.03;;;0.60;59.60;;;;;;5027371;28;20049;-59
2021/03/10 05:23:41;;;;;;;12.32;7.13;;;0.70;59.00;;;;;;5031834;28;20388;-58
2021/03/10 05:26:08;;;;;;;7.95;5.38;;;0.80;58.90;;;;;;5032902;28;20029;-57
2021/03/10 05:28:46;;;;;;;8.55;6.03;;;0.80;59.00;;;;;;5027478;28;20025;-59
2021/03/10 05:31:12;;;;;;;10.23;6.72;;;1.00;58.90;;;;;;5032171;28;20441;-55
2021/03/10 05:33:38;;;;;;;8.73;6.20;;;1.00;59.10;;;;;;5032932;28;20132;-54
2021/03/10 05:36:04;;;;;;;10.15;6.80;;;1.10;59.10;;;;;;5033050;28;20032;-55
2021/03/10 05:38:33;;;;;;;9.65;6.35;;;1.20;59.00;;;;;;5031792;28;20026;-56
2021/03/10 05:40:59;;;;;;;8.98;6.35;;;1.30;59.00;;;;;;5033251;28;20029;-57
2021/03/10 05:43:25;;;;;;;8.80;6.53;;;1.40;58.80;;;;;;5031854;28;20100;-58
2021/03/10 05:45:51;;;;;;;9.80;6.82;;;1.40;58.60;;;;;;5032872;28;20025;-57
2021/03/10 05:48:17;;;;;;;10.02;6.40;;;1.50;58.50;;;;;;5025851;28;20088;-56
2021/03/10 05:50:43;;;;;;;9.07;6.63;;;1.70;58.50;;;;;;5028341;28;20040;-57
2021/03/10 05:53:11;;;;;;;8.20;6.63;;;1.80;58.40;;;;;;5032646;28;20469;-57
2021/03/10 05:55:41;;;;;;;8.77;7.13;;;1.90;58.20;;;;;;5032660;28;20044;-59
2021/03/10 05:58:13;;;;;;;8.35;6.25;;;2.10;58.80;;;;;;5030332;28;20037;-59
2021/03/10 06:00:46;;;;;;;10.00;6.25;;;2.30;58.10;;;;;;5031883;28;20021;-58
2021/03/10 06:03:15;;;;;;;9.35;6.20;;;2.60;58.20;;;;;;5031355;28;20026;-54
2021/03/10 06:05:42;;;;;;;10.85;7.03;;;2.80;57.60;;;;;;5030851;28;20029;-58
2021/03/10 06:08:09;;;;;;;9.80;7.22;;;3.20;57.30;;;;;;5032927;28;20021;-55
2021/03/10 06:10:40;;;;;;;8.02;6.57;;;3.50;56.70;;;;;;5023395;28;20029;-58
2021/03/10 06:13:24;;;;;;;8.82;6.85;;;3.90;56.20;;;;;;5022897;28;20049;-58
2021/03/10 06:15:51;;;;;;;9.60;6.72;;;4.20;55.70;;;;;;5029466;28;20100;-59
2021/03/10 06:18:34;;;;;;;10.70;6.63;;;4.60;55.40;;;;;;5032405;28;20105;-57
2021/03/10 06:21:14;;;;;;;8.95;6.80;;;5.00;54.50;;;;;;5027204;28;20029;-59
2021/03/10 06:23:58;;;;;;;8.38;6.93;;;5.20;54.20;;;;;;5032210;28;20033;-58
2021/03/10 06:26:32;;;;;;;9.57;6.82;;;5.50;53.70;;;;;;5028582;28;20049;-58
2021/03/10 06:28:59;;;;;;;11.95;7.95;;;5.70;53.20;;;;;;5029626;28;20029;-56
2021/03/10 06:31:34;;;;;;;14.65;8.63;;;6.00;52.90;;;;;;5020702;28;20409;-58
2021/03/10 06:34:14;;;;;;;15.27;10.48;;;6.30;52.30;;;;;;5020585;28;20076;-57
2021/03/10 06:36:43;;;;;;;16.73;10.50;;;6.40;51.60;;;;;;5029536;28;20176;-55
2021/03/10 06:39:12;;;;;;;24.45;16.08;;;6.50;51.00;;;;;;5029388;28;20420;-57
2021/03/10 06:41:39;;;;;;;23.38;16.10;;;6.50;50.00;;;;;;5020321;28;20400;-56
2021/03/10 06:44:28;;;;;;;24.25;15.55;;;6.30;49.40;;;;;;5022656;28;20185;-57
2021/03/10 06:46:58;;;;;;;22.25;14.30;;;6.00;49.40;;;;;;5018218;28;20022;-56
2021/03/10 06:49:26;;;;;;;19.15;11.77;;;5.70;49.50;;;;;;5019315;28;20049;-60
2021/03/10 06:52:07;;;;;;;15.25;9.10;;;5.40;49.70;;;;;;5013007;28;20026;-55
2021/03/10 06:54:32;;;;;;;11.55;7.47;;;5.10;49.80;;;;;;5014299;28;20044;-57
2021/03/10 06:57:10;;;;;;;11.75;7.80;;;4.80;49.60;;;;;;5013845;28;20041;-59
2021/03/10 06:59:44;;;;;;;11.85;7.85;;;4.50;49.70;;;;;;5014892;28;20034;-52
2021/03/10 07:02:18;;;;;;;7.68;6.22;;;4.30;50.10;;;;;;5013829;28;20026;-55
2021/03/10 07:04:46;;;;;;;7.70;5.72;;;4.10;50.00;;;;;;5025359;28;20564;-56
2021/03/10 07:07:13;;;;;;;11.27;6.43;;;4.00;51.00;;;;;;5021488;28;20076;-56
2021/03/10 07:09:39;;;;;;;9.65;6.03;;;3.90;50.50;;;;;;5026327;28;20042;-56
2021/03/10 07:12:09;;;;;;;8.73;6.35;;;3.80;50.40;;;;;;5018425;28;20048;-55
2021/03/10 07:14:38;;;;;;;6.82;5.25;;;3.70;50.50;;;;;;5023219;28;20017;-54
2021/03/10 07:17:06;;;;;;;6.63;5.43;;;3.70;50.40;;;;;;5024027;28;20021;-56
2021/03/10 07:19:31;;;;;;;6.28;4.60;;;3.70;50.50;;;;;;5016736;28;20050;-56
2021/03/10 07:22:17;;;;;;;7.25;5.05;;;3.60;50.30;;;;;;5019274;28;20544;-55
2021/03/10 07:25:06;;;;;;;8.43;5.25;;;3.50;50.20;;;;;;5015555;28;20029;-56
2021/03/10 07:27:43;;;;;;;8.20;5.43;;;3.40;50.30;;;;;;5013512;28;20029;-54
2021/03/10 07:30:10;;;;;;;6.90;4.93;;;3.20;50.30;;;;;;5024144;28;20735;-53
2021/03/10 07:32:35;;;;;;;6.78;4.95;;;3.20;50.40;;;;;;5017881;28;20059;-55
2021/03/10 07:35:07;;;;;;;8.68;5.78;;;3.10;50.50;;;;;;5018558;28;20045;-53
2021/03/10 07:37:34;;;;;;;6.72;4.85;;;3.10;50.70;;;;;;5016169;28;20403;-54
2021/03/10 07:40:06;;;;;;;10.70;5.80;;;3.10;50.60;;;;;;5015447;28;20670;-54
2021/03/10 07:42:32;;;;;;;;;;;3.10;50.60;;;;;;5017133;28;20432;-52
2021/03/10 07:44:58;;;;;;;7.10;4.50;;;3.10;50.90;;;;;;5013264;28;19905;-53
2021/03/10 07:47:24;;;;;;;7.88;5.57;;;3.10;50.70;;;;;;5016113;28;20783;-52
2021/03/10 07:50:00;;;;;;;7.18;4.95;;;3.10;50.80;;;;;;5012784;28;20084;-54
2021/03/10 07:52:28;;;;;;;7.55;4.50;;;3.10;50.60;;;;;;5010915;28;20504;-54
2021/03/10 07:54:59;;;;;;;6.28;4.47;;;3.10;50.80;;;;;;5014287;28;20045;-55
2021/03/10 07:57:25;;;;;;;4.82;4.22;;;3.10;50.70;;;;;;5018179;28;20029;-54
2021/03/10 07:59:59;;;;;;;6.72;4.85;;;3.10;50.60;;;;;;5016275;28;20029;-56
2021/03/10 08:02:27;;;;;;;5.68;4.90;;;3.10;50.50;;;;;;5009528;28;20108;-57
2021/03/10 08:05:01;;;;;;;7.80;5.28;;;3.10;50.70;;;;;;5012512;28;20029;-58
2021/03/10 08:07:30;;;;;;;5.85;3.90;;;3.00;50.40;;;;;;5011872;28;20152;-57
2021/03/10 08:09:56;;;;;;;5.53;3.70;;;3.00;51.00;;;;;;5012660;28;20043;-55
2021/03/10 08:12:33;;;;;;;5.05;3.95;;;3.00;50.10;;;;;;5020841;28;20061;-56
2021/03/10 08:14:59;;;;;;;6.03;4.15;;;3.00;50.00;;;;;;5016573;28;20041;-56
2021/03/10 08:17:28;;;;;;;5.95;3.88;;;2.90;50.10;;;;;;5012229;28;21027;-55
2021/03/10 08:20:08;;;;;;;6.63;4.00;;;2.90;50.20;;;;;;5011971;28;20034;-55
2021/03/10 08:22:34;;;;;;;5.43;3.50;;;2.90;50.10;;;;;;5011423;28;20053;-55
2021/03/10 08:25:01;;;;;;;6.22;4.22;;;2.90;50.00;;;;;;5015030;28;20032;-55
2021/03/10 08:27:29;;;;;;;6.55;4.47;;;2.90;50.20;;;;;;5013093;28;20029;-54
2021/03/10 08:29:55;;;;;;;5.22;3.78;;;2.90;50.20;;;;;;5012575;28;20048;-53
2021/03/10 08:32:27;;;;;;;4.43;3.60;;;2.90;50.40;;;;;;4996841;28;20033;-57
2021/03/10 08:34:59;;;;;;;4.32;3.78;;;3.00;50.40;;;;;;5008705;28;20485;-54
2021/03/10 08:37:25;;;;;;;4.20;3.67;;;2.90;50.20;;;;;;5007105;28;20103;-57
2021/03/10 08:39:51;;;;;;;5.63;4.07;;;2.90;50.30;;;;;;5013237;28;20030;-55
2021/03/10 08:42:18;;;;;;;6.03;4.03;;;2.90;50.50;;;;;;5013946;28;21276;-57
2021/03/10 08:44:45;;;;;;;7.20;4.50;;;2.90;50.40;;;;;;5010978;28;20030;-58
2021/03/10 08:47:20;;;;;;;6.57;4.47;;;2.90;50.30;;;;;;5010051;28;20033;-57
2021/03/10 08:49:56;;;;;;;5.50;4.00;;;2.90;50.30;;;;;;5008371;28;20728;-55
2021/03/10 08:52:23;;;;;;;5.13;3.78;;;2.90;50.50;;;;;;5005458;28;20087;-55
2021/03/10 08:55:02;;;;;;;6.20;4.55;;;2.90;50.60;;;;;;5008508;28;20029;-57
2021/03/10 08:57:33;;;;;;;5.47;3.83;;;2.80;50.50;;;;;;5010631;28;20064;-55
2021/03/10 09:00:00;;;;;;;6.45;4.70;;;2.80;50.40;;;;;;5016674;28;20041;-54
2021/03/10 09:02:34;;;;;;;5.03;3.90;;;2.80;50.50;;;;;;5013791;28;20014;-55
2021/03/10 09:05:03;;;;;;;5.38;3.65;;;2.80;50.40;;;;;;5008376;28;20040;-57
2021/03/10 09:07:29;;;;;;;5.82;4.13;;;2.80;50.70;;;;;;5010611;28;20029;-55
2021/03/10 09:09:57;;;;;;;5.60;3.92;;;2.80;50.30;;;;;;5010800;28;20037;-57
2021/03/10 09:12:23;;;;;;;5.80;4.10;;;2.70;50.00;;;;;;5013031;28;20396;-56
2021/03/10 09:14:50;;;;;;;6.80;4.40;;;2.70;49.90;;;;;;5012370;28;20048;-57
2021/03/10 09:17:15;;;;;;;5.65;3.97;;;2.60;50.00;;;;;;5013328;28;20061;-56
2021/03/10 09:19:46;;;;;;;5.57;4.03;;;2.60;49.90;;;;;;5007292;28;20137;-57
2021/03/10 09:22:22;;;;;;;6.38;3.97;;;2.60;49.90;;;;;;5009020;28;20030;-55
2021/03/10 09:24:54;;;;;;;6.40;4.03;;;2.60;49.80;;;;;;5009573;28;20037;-56
2021/03/10 09:27:23;;;;;;;5.78;4.00;;;2.60;49.80;;;;;;5010547;28;20029;-57
2021/03/10 09:29:50;;;;;;;4.15;3.50;;;2.60;49.90;;;;;;5008217;28;20038;-58
2021/03/10 09:32:16;;;;;;;4.95;3.75;;;2.60;50.10;;;;;;5008482;28;20029;-56
2021/03/10 09:34:46;;;;;;;5.25;3.75;;;2.50;49.40;;;;;;5009210;28;20137;-58
2021/03/10 09:37:13;;;;;;;4.82;3.50;;;2.50;49.60;;;;;;5010705;28;20029;-57
2021/03/10 09:39:47;;;;;;;4.80;4.03;;;2.40;49.40;;;;;;5008401;28;20064;-59
2021/03/10 09:42:13;;;;;;;4.28;3.22;;;2.50;49.80;;;;;;5006093;28;20059;-57
2021/03/10 09:44:51;;;;;;;4.82;3.33;;;2.50;49.40;;;;;;5006666;28;20034;-58
2021/03/10 09:47:17;;;;;;;4.28;3.65;;;2.50;49.40;;;;;;5008199;28;20032;-59
2021/03/10 09:49:48;;;;;;;6.82;3.97;;;2.50;49.20;;;;;;5011568;28;20048;-57
2021/03/10 09:52:14;;;;;;;3.88;3.42;;;2.60;49.00;;;;;;5009827;28;20025;-57
2021/03/10 09:54:50;;;;;;;3.58;3.08;;;2.60;49.10;;;;;;5012173;28;20034;-55
2021/03/10 09:57:21;;;;;;;3.67;3.30;;;2.70;48.90;;;;;;5004388;28;20025;-53
2021/03/10 09:59:47;;;;;;;4.57;3.22;;;2.70;48.70;;;;;;5011619;28;20033;-54
2021/03/10 10:02:14;;;;;;;3.75;3.00;;;2.70;48.70;;;;;;5010610;28;20026;-54
2021/03/10 10:04:41;;;;;;;4.47;3.22;;;2.80;48.60;;;;;;5008683;28;20060;-59
2021/03/10 10:07:08;;;;;;;4.13;2.88;;;2.80;48.40;;;;;;5006416;28;20087;-56
2021/03/10 10:09:34;;;;;;;3.35;2.60;;;2.80;48.30;;;;;;5004074;28;20058;-54
2021/03/10 10:12:00;;;;;;;3.35;3.00;;;2.80;48.30;;;;;;5006535;28;20211;-56
2021/03/10 10:14:25;;;;;;;3.53;2.88;;;2.80;47.90;;;;;;5007402;28;20498;-57
2021/03/10 10:16:51;;;;;;;4.03;3.17;;;2.80;47.50;;;;;;5008550;28;20034;-55
2021/03/10 10:19:17;;;;;;;3.80;3.28;;;2.90;47.50;;;;;;5006793;28;20124;-57
2021/03/10 10:21:46;;;;;;;3.60;2.90;;;2.90;47.30;;;;;;5008552;28;20079;-56
2021/03/10 10:24:15;;;;;;;3.42;3.10;;;2.90;47.20;;;;;;5004944;28;20026;-56
2021/03/10 10:26:41;;;;;;;3.50;2.78;;;2.90;47.20;;;;;;5008439;28;20022;-57
2021/03/10 10:29:06;;;;;;;4.03;2.92;;;2.80;47.20;;;;;;5009152;28;20094;-56
2021/03/10 10:31:34;;;;;;;3.33;2.70;;;2.80;47.20;;;;;;5006720;28;20030;-56
2021/03/10 10:33:59;;;;;;;3.80;2.70;;;2.80;47.20;;;;;;5010463;28;20061;-56
2021/03/10 10:36:25;;;;;;;3.67;2.60;;;2.80;47.10;;;;;;5008578;28;20426;-57
2021/03/10 10:38:51;;;;;;;4.15;3.20;;;2.80;47.00;;;;;;5007134;28;20037;-55
2021/03/10 10:41:16;;;;;;;3.70;2.95;;;2.70;47.20;;;;;;5010594;28;20450;-58
2021/03/10 10:43:42;;;;;;;2.80;2.60;;;2.70;47.20;;;;;;5012057;28;20350;-57
2021/03/10 10:46:08;;;;;;;3.90;3.00;;;2.70;47.20;;;;;;5013893;28;20037;-57
2021/03/10 10:48:33;;;;;;;3.33;2.78;;;2.70;46.80;;;;;;5013120;28;20073;-51
2021/03/10 10:50:59;;;;;;;3.30;3.00;;;2.70;46.80;;;;;;5014058;28;20136;-55
2021/03/10 10:53:25;;;;;;;3.25;2.90;;;2.70;46.70;;;;;;5010588;28;20118;-56
2021/03/10 10:55:50;;;;;;;5.10;3.38;;;2.70;46.50;;;;;;5010499;28;20034;-54
2021/03/10 10:58:17;;;;;;;4.47;3.13;;;2.70;46.50;;;;;;5000972;28;20271;-52
2021/03/10 11:00:42;;;;;;;4.97;3.50;;;2.70;46.80;;;;;;5011250;28;20082;-52
2021/03/10 11:03:08;;;;;;;3.63;2.90;;;2.70;46.80;;;;;;5000153;28;20021;-54
2021/03/10 11:05:34;;;;;;;3.80;3.10;;;2.60;46.70;;;;;;5012204;28;21360;-56
2021/03/10 11:07:59;;;;;;;3.17;2.63;;;2.60;46.70;;;;;;5007344;28;20478;-56
2021/03/10 11:10:25;;;;;;;3.92;3.00;;;2.60;46.90;;;;;;5010942;28;20065;-57
2021/03/10 11:12:51;;;;;;;4.15;2.92;;;2.60;46.50;;;;;;5013679;28;20036;-55
2021/03/10 11:15:17;;;;;;;3.83;3.10;;;2.60;46.30;;;;;;5012192;28;20786;-56
2021/03/10 11:17:42;;;;;;;3.97;3.33;;;2.60;46.10;;;;;;5007929;28;20041;-56
2021/03/10 11:20:09;;;;;;;4.38;3.38;;;2.60;46.10;;;;;;5015193;28;20018;-55
2021/03/10 11:22:35;;;;;;;3.20;2.80;;;2.50;46.00;;;;;;5012013;28;20068;-53
2021/03/10 11:25:01;;;;;;;3.00;2.80;;;2.50;46.10;;;;;;5013013;28;20024;-54
2021/03/10 11:27:27;;;;;;;4.88;3.17;;;2.50;46.00;;;;;;5017374;28;20061;-54
2021/03/10 11:29:52;;;;;;;4.60;2.95;;;2.50;46.00;;;;;;5017315;28;20501;-54
2021/03/10 11:32:18;;;;;;;4.25;2.88;;;2.40;46.00;;;;;;5016216;28;20044;-54
2021/03/10 11:34:44;;;;;;;3.30;3.00;;;2.40;46.20;;;;;;5021213;28;20037;-55
2021/03/10 11:37:11;;;;;;;4.80;3.45;;;2.30;46.10;;;;;;5017809;28;20037;-55
2021/03/10 11:39:36;;;;;;;3.42;3.05;;;2.30;46.30;;;;;;5014951;28;21223;-57
2021/03/10 11:42:02;;;;;;;2.95;2.75;;;2.30;46.30;;;;;;5014473;28;20026;-54
2021/03/10 11:44:28;;;;;;;2.75;2.53;;;2.30;45.90;;;;;;5016806;28;20112;-57
2021/03/10 11:46:53;;;;;;;3.63;3.10;;;2.30;45.90;;;;;;5017864;28;20026;-57
2021/03/10 11:49:20;;;;;;;4.00;3.13;;;2.30;46.00;;;;;;5014508;28;20045;-56
2021/03/10 11:51:46;;;;;;;3.28;2.97;;;2.30;45.70;;;;;;5018497;28;20140;-53
2021/03/10 11:54:12;;;;;;;3.58;3.10;;;2.30;45.60;;;;;;5012352;28;20133;-53
2021/03/10 11:56:37;;;;;;;4.72;3.13;;;2.30;45.90;;;;;;5007035;28;20038;-55
2021/03/10 11:59:03;;;;;;;4.88;3.35;;;2.20;45.70;;;;;;5005658;28;20095;-56
2021/03/10 12:01:30;;;;;;;3.70;3.28;;;2.20;45.90;;;;;;5007529;28;20025;-56
2021/03/10 12:03:56;;;;;;;4.22;3.60;;;2.20;46.10;;;;;;5017185;28;20081;-58
2021/03/10 12:06:21;;;;;;;4.15;3.17;;;2.10;46.00;;;;;;5016798;28;20061;-58
2021/03/10 12:08:47;;;;;;;4.07;3.30;;;2.10;46.00;;;;;;5015791;28;20042;-56
2021/03/10 12:11:13;;;;;;;4.13;2.80;;;2.10;45.80;;;;;;5021645;28;20033;-56
2021/03/10 12:13:38;;;;;;;5.28;3.38;;;2.10;46.00;;;;;;5014064;28;20038;-53
2021/03/10 12:16:05;;;;;;;4.60;3.30;;;2.10;45.70;;;;;;5019971;28;20037;-55
2021/03/10 12:18:30;;;;;;;3.75;3.40;;;2.00;45.90;;;;;;5017639;28;20040;-57
2021/03/10 12:20:56;;;;;;;4.95;3.40;;;2.00;45.90;;;;;;5019002;28;20482;-57
2021/03/10 12:23:22;;;;;;;3.88;2.90;;;2.00;45.80;;;;;;5016225;28;20027;-58
2021/03/10 12:25:48;;;;;;;3.95;2.80;;;2.00;45.80;;;;;;5014717;28;20128;-57
2021/03/10 12:28:14;;;;;;;3.28;2.85;;;1.90;45.60;;;;;;5009607;28;20125;-58
2021/03/10 12:30:40;;;;;;;5.35;3.35;;;1.90;45.70;;;;;;5014117;28;20036;-57
2021/03/10 12:33:06;;;;;;;3.15;2.85;;;1.90;45.70;;;;;;5019194;28;20100;-58
2021/03/10 12:35:32;;;;;;;3.45;2.92;;;1.90;45.70;;;;;;5019846;28;20422;-57
2021/03/10 12:37:57;;;;;;;3.60;3.03;;;1.90;45.70;;;;;;5020279;28;20044;-55
2021/03/10 12:40:25;;;;;;;3.83;3.20;;;1.80;46.00;;;;;;5019148;28;20100;-54
2021/03/10 12:42:50;;;;;;;4.82;3.22;;;1.70;46.30;;;;;;5022941;28;20034;-57
2021/03/10 12:45:17;;;;;;;3.63;3.15;;;1.70;46.50;;;;;;5014897;28;20045;-58
2021/03/10 12:47:43;;;;;;;5.13;3.90;;;1.70;46.90;;;;;;5014531;28;20042;-57
2021/03/10 12:50:09;;;;;;;5.25;3.65;;;1.70;47.00;;;;;;5013973;28;20057;-58
2021/03/10 12:52:35;;;;;;;5.85;3.85;;;1.50;47.10;;;;;;5015681;28;20113;-57
2021/03/10 12:55:00;;;;;;;4.70;3.65;;;1.50;47.20;;;;;;5017539;28;20227;-58